White Mountain Summit Weather observations

Data are for 10 minute period ending at time listed.
 Day   Time   Solar   Ave.   Ave.  Ave.  Vector    Max.    Baro.  
  of    of     Rad.   Air    Rel.  Wind   Wind     Wind   Press.  
Year   Day            Temp.  Hum.  Speed  Dir.     Gust           
2014   (PST)   W/m2    F      %     mph   deg.      mph     mb.   
-------------------------------------------------------------------
 105    8:10    0.0    24   15.9    11    285.7    18.8   999.0 
 105    8:20    0.0    25   14.7    12    280.3    23.5   999.0 
 105    8:30    0.0    26   14.9    12    289.4    18.8   999.0 
 105    8:40    0.0    26   16.4    10    299.0    16.5   999.0 
 105    8:50    0.0    27   12.9    12    278.8    16.5   999.0 
 105    9:00    0.0    28   14.9    10    293.8    18.8   999.0 
 105    9:10    0.0    28   13.0    15    277.9    23.5   999.0 
 105    9:20    0.0    28   15.0    10    288.2    18.8   999.0 
 105    9:30    0.0    30   16.4     9    267.0    14.1   999.0 
 105    9:40    0.0    30   19.5    11    281.7    21.2   999.0 
 105    9:50    0.0    30   16.0    10    286.6    16.5   999.0 
 105   10:00    0.0    31   15.2    14    275.3    23.5   999.0 
 105   10:10    0.0    30   16.5    15    269.7    23.5   999.0 
 105   10:20    0.0    30   16.0    18    268.4    25.9   999.0 
 105   10:30    0.0    29   14.9    20    273.2    28.2   999.0 
 105   10:40    0.0    29   15.3    22    266.2    30.6   999.0 
 105   10:50    0.0    30   15.7    22    265.5    28.2   999.0 
 105   11:00    0.0    30   15.2    23    266.1    28.2   999.0 
 105   11:10    0.0    30   13.4    26    268.7    37.7   999.0 
 105   11:20    0.0    30   14.3    25    266.4    33.0   999.0 
 105   11:30    0.0    31   17.0    23    265.0    30.6   999.0 
 105   11:40    0.0    31   19.8    24    264.7    30.6   999.0 
 105   11:50    0.0    31   23.1    26    265.1    33.0   999.0 
 105   12:00    0.0    31   26.2    31    264.2    37.7   999.0 
 105   12:10    0.0    31   29.1    32    266.0    42.4   999.0 
 105   12:20    0.0    31   31.2    31    265.9    37.7   999.0 
 105   12:30    0.0    32   30.0    33    266.3    44.7   999.0 
 105   12:40    0.0    32   29.7    37    264.7    44.7   999.0 
 105   12:50    0.0    32   30.0    32    266.9    40.0   999.0 
 105   13:00    0.0    33   27.9    31    265.5    42.4   999.0 
 105   13:10    0.0    33   28.7    27    265.4    37.7   999.0 
 105   13:20    0.0    34   28.2    23    267.6    35.3   999.0 
 105   13:30    0.0    34   28.6    29    265.1    44.7   999.0 
 105   13:40    0.0    34   27.3    30    269.1    42.4   999.0 
 105   13:50    0.0    33   26.8    24    269.2    37.7   999.0 
 105   14:00    0.0    34   25.5    30    268.3    49.4   999.0 
 105   14:10    0.0    34   24.2    26    270.3    44.7   999.0 
 105   14:20    0.0    34   23.8    31    270.7    56.5   999.0 
 105   14:30    0.0    34   24.8    31    267.0    42.4   999.0 
 105   14:40    0.0    34   24.0    26    271.2    51.8   999.0 
 105   14:50    0.0    35   24.0    28    265.7    47.1   999.0 
 105   15:00    0.0    35   24.5    25    266.2    40.0   999.0 
 105   15:10    0.0    35   24.9    33    265.7    54.1   999.0 
 105   15:20    0.0    34   26.1    32    264.8    42.4   999.0 
 105   15:30    0.0    34   25.7    23    267.5    37.7   999.0 
 105   15:40    0.0    35   25.3    22    265.4    40.0   999.0 
 105   15:50    0.0    34   25.5    26    264.4    40.0   999.0 
 105   16:00    0.0    34   25.3    20    261.3    28.2   999.0 
 105   16:10    0.0    33   26.4    33    265.5    40.0   999.0 
 105   16:20    0.0    34   25.8    23    265.9    35.3   999.0 
 105   16:30    0.0    34   25.0    24    266.8    42.4   999.0 
 105   16:40    0.0    34   26.8    27    265.9    40.0   999.0 
 105   16:50    0.0    34   25.6    22    265.6    40.0   999.0 
 105   17:00    0.0    33   28.2    24    264.9    37.7   999.0 
 105   17:10    0.0    33   29.8    25    265.5    35.3   999.0 
 105   17:20    0.0    32   30.6    22    266.4    33.0   999.0 
 105   17:30    0.0    32   32.3    23    268.4    35.3   999.0 
 105   17:40    0.0    31   33.2    23    267.1    40.0   999.0 
 105   17:50    0.0    31   34.0    18    266.2    30.6   999.0 
 105   18:00    0.0    30   35.9    19    262.3    28.2   999.0 
 105   18:10    0.0    30   38.9    20    265.4    28.2   999.0 
 105   18:20    0.0    30   39.4    17    261.4    28.2   999.0 
 105   18:30    0.0    29   40.0    23    265.8    35.3   999.0 
 105   18:40    0.0    28   40.9    26    265.9    35.3   999.0 
 105   18:50    0.0    27   44.6    21    265.9    28.2   999.0 
 105   19:00    0.0    26   47.4    22    265.8    28.2   999.0 
 105   19:10    0.0    26   48.9    22    268.9    33.0   999.0 
 105   19:20    0.0    26   48.6    21    276.4    28.2   999.0 
 105   19:30    0.0    26   47.6    19    273.9    28.2   999.0 
 105   19:40    0.0    25   47.3    16    277.1    23.5   999.0 
 105   19:50    0.0    25   45.3    16    274.3    21.2   999.0 
 105   20:00    0.0    25   46.1    14    283.8    23.5   999.0 
 105   20:10    0.0    25   45.8    10    282.2    16.5   999.0 
 105   20:20    0.0    25   41.6    12    278.7    16.5   999.0 
 105   20:30    0.0    26   35.1    16    266.2    18.8   999.0 
 105   20:40    0.0    25   36.0    13    266.6    16.5   999.0 
 105   20:50    0.0    25   36.1    12    266.6    14.1   999.0 
 105   21:00    0.0    25   37.6    13    270.7    18.8   999.0 
 105   21:10    0.0    25   38.2    20    267.5    25.9   999.0 
 105   21:20    0.0    25   39.5    25    264.9    28.2   999.0 
 105   21:30    0.0    24   41.9    24    263.5    28.2   999.0 
 105   21:40    0.0    24   43.3    26    265.8    28.2   999.0 
 105   21:50    0.0    24   44.3    28    264.5    30.6   999.0 
 105   22:00    0.0    23   45.8    26    264.4    30.6   999.0 
 105   22:10    0.0    23   45.8    27    268.3    30.6   999.0 
 105   22:20    0.0    23   44.9    29    266.3    37.7   999.0 
 105   22:30    0.0    23   47.3    30    266.9    37.7   999.0 
 105   22:40    0.0    22   49.3    32    264.7    37.7   999.0 
 105   22:50    0.0    22   51.5    37    263.2    42.4   999.0 
 105   23:00    0.0    22   52.4    36    263.7    42.4   999.0 
 105   23:10    0.0    22   54.0    35    264.6    42.4   999.0 
 105   23:20    0.0    22   55.8    37    263.2    42.4   999.0 
 105   23:30    0.0    21   57.3    39    263.2    44.7   999.0 
 105   23:40    0.0    21   58.4    43    263.2    47.1   999.0 
 105   23:50    0.0    21   57.5    46    263.7    49.4   999.0 
 106    0:00    0.0    21   57.9    46    264.2    51.8   999.0 
 106    0:10    0.0    21   59.4    47    264.8    51.8   999.0 
 106    0:20    0.0    21   60.4    47    264.8    49.4   999.0 
 106    0:30    0.0    20   60.8    50    265.0    54.1   999.0 
 106    0:40    0.0    20   61.0    51    267.5    56.5   999.0 
 106    0:50    0.0    20   61.3    52    268.1    56.5   999.0 
 106    1:00    0.0    20   63.7    49    266.9    54.1   999.0 
 106    1:10    0.0    20   65.0    50    266.0    54.1   999.0 
 106    1:20    0.0    20   66.3    48    265.9    51.8   999.0 
 106    1:30    0.0    20   66.2    49    264.0    51.8   999.0 
 106    1:40    0.0    19   67.5    47    264.0    51.8   999.0 
 106    1:50    0.0    19   65.7    50    265.2    54.1   999.0 
 106    2:00    0.0    19   65.5    48    264.8    54.1   999.0 
 106    2:10    0.0    19   60.3    49    265.8    56.5   999.0 
 106    2:20    0.0    19   62.8    38    267.0    44.7   999.0 
 106    2:30    0.0    19   61.4    38    267.0    44.7   999.0 
 106    2:40    0.0    19   62.6    37    267.3    42.4   999.0 
 106    2:50    0.0    19   64.6    42    266.7    49.4   999.0 
 106    3:00    0.0    18   66.0    45    265.3    51.8   999.0 
 106    3:10    0.0    18   63.3    52    265.2    61.2   999.0 
 106    3:20    0.0    18   63.0    51    264.4    56.5   999.0 
 106    3:30    0.0    18   59.5    52    265.0    58.8   999.0 
 106    3:40    0.0    18   59.8    53    266.1    63.5   999.0 
 106    3:50    0.0    18   57.1    53    266.6    61.2   999.0 
 106    4:00    0.0    18   57.8    50    268.3    58.8   999.0 
 106    4:10    0.0    18   60.1    48    269.7    56.5   999.0 
 106    4:20    0.0    18   58.9    54    267.5    65.9   999.0 
 106    4:30    0.0    18   58.2    55    266.8    63.5   999.0 
 106    4:40    0.0    18   59.4    54    265.1    63.5   999.0 
 106    4:50    0.0    18   58.5    52    269.7    63.5   999.0 
 106    5:00    0.0    18   57.8    54    272.7    61.2   999.0 
 106    5:10    0.0    18   58.0    56    270.4    65.9   999.0 
 106    5:20    0.0    18   59.0    55    270.3    61.2   999.0 
 106    5:30    0.0    18   58.8    53    269.2    58.8   999.0 
 106    5:40    0.0    18   58.8    51    265.3    54.1   999.0 
 106    5:50    0.0    18   58.0    49    267.3    54.1   999.0 
 106    6:00    0.0    18   57.9    43    273.8    49.4   999.0 
 106    6:10    0.0    18   57.9    38    277.3    44.7   999.0 
 106    6:20    0.0    18   60.0    31    278.6    35.3   999.0 
 106    6:30    0.0    18   63.8    24    273.0    30.6   999.0 
 106    6:40    0.0    18   65.5    24    272.5    28.2   999.0 
 106    6:50    0.0    18   70.2    25    269.8    30.6   999.0 
 106    7:00    0.0    19   71.5    26    275.9    37.7   999.0 
 106    7:10    0.0    20   71.1    23    277.3    37.7   999.0 
 106    7:20    0.0    20   71.0    28    278.6    44.7   999.0 
 106    7:30    0.0    20   70.8    26    282.0    49.4   999.0 
 106    7:40    0.0    21   70.3    22    286.5    40.0   999.0 
 106    7:50    0.0    22   69.4    20    280.0    33.0   999.0 
 106    8:00    0.0    21   69.2    28    272.0    44.7   999.0 

Return to White Mountain graphs page.


Western Regional Climate Center,wrcc@dri.edu